Time;durP1;ratioP1;P1;durP2;ratioP2;P2;SDS_P1;SDS_P2;PMS_P1;PMS_P2;Temp;Humidity;BMP_temperature;BMP_pressure;BME280_temperature;BME280_humidity;BME280_pressure;Samples;Min_cycle;Max_cycle;Signal;HPM_P1;HPM_P2
2021/10/15 00:04:40;;;;;;;15.60;10.18;;;12.30;99.90;;;;;;12371893;28;20076;-86
2021/10/15 00:10:42;;;;;;;14.93;9.35;;;12.30;99.90;;;;;;12360322;28;20050;-85
2021/10/15 00:16:44;;;;;;;13.95;8.73;;;12.30;99.90;;;;;;12369919;28;20046;-85
2021/10/15 00:22:46;;;;;;;15.30;8.40;;;12.30;99.90;;;;;;12366893;28;20085;-86
2021/10/15 00:28:48;;;;;;;21.15;8.77;;;12.30;99.90;;;;;;12360493;28;20156;-86
2021/10/15 00:34:50;;;;;;;14.68;7.80;;;12.30;99.90;;;;;;12368458;28;20043;-85
2021/10/15 00:40:51;;;;;;;13.32;7.75;;;12.20;99.90;;;;;;12352985;28;20045;-85
2021/10/15 00:46:53;;;;;;;12.98;7.50;;;12.30;99.90;;;;;;12396704;28;20054;-85
2021/10/15 00:52:55;;;;;;;11.07;7.03;;;12.30;99.90;;;;;;12401095;28;20050;-84
2021/10/15 00:59:03;;;;;;;10.32;6.43;;;12.20;99.90;;;;;;12399453;28;20049;-86
2021/10/15 01:05:06;;;;;;;12.23;6.22;;;12.10;99.90;;;;;;12397467;28;20050;-85
2021/10/15 01:11:08;;;;;;;10.85;6.35;;;12.20;99.90;;;;;;12390197;28;20050;-85
2021/10/15 01:17:09;;;;;;;12.45;7.20;;;12.20;99.90;;;;;;12401814;28;20076;-86
2021/10/15 01:23:11;;;;;;;9.77;5.80;;;12.20;99.90;;;;;;12398097;28;20766;-87
2021/10/15 01:29:13;;;;;;;11.00;5.50;;;12.10;99.90;;;;;;12396582;28;20143;-86
2021/10/15 01:35:15;;;;;;;10.85;5.63;;;12.20;99.90;;;;;;12399273;28;20124;-85
2021/10/15 01:41:17;;;;;;;8.65;5.05;;;12.10;99.90;;;;;;12400919;28;20053;-88
2021/10/15 01:47:19;;;;;;;10.65;5.00;;;12.10;99.90;;;;;;12432116;28;20053;-86
2021/10/15 01:53:21;;;;;;;8.40;5.28;;;12.10;99.90;;;;;;12460799;28;20049;-86
2021/10/15 01:59:23;;;;;;;14.43;5.32;;;12.10;99.90;;;;;;12458760;28;20096;-85
2021/10/15 02:05:25;;;;;;;8.90;4.82;;;12.10;99.90;;;;;;12447868;28;20048;-86
2021/10/15 02:11:27;;;;;;;18.58;5.68;;;12.00;99.90;;;;;;12455971;28;20151;-86
2021/10/15 02:17:29;;;;;;;7.85;5.03;;;12.00;99.90;;;;;;12467958;28;20065;-87
2021/10/15 02:23:31;;;;;;;8.95;4.57;;;12.00;99.90;;;;;;12449991;28;20141;-88
2021/10/15 02:29:33;;;;;;;9.40;4.70;;;12.00;99.90;;;;;;12447839;28;20450;-86
2021/10/15 02:35:35;;;;;;;10.18;4.88;;;12.00;99.90;;;;;;12462864;28;20041;-85
2021/10/15 02:41:38;;;;;;;11.07;4.97;;;12.00;99.90;;;;;;12445480;28;20048;-86
2021/10/15 02:47:43;;;;;;;11.95;4.72;;;11.90;99.90;;;;;;12468877;28;20041;-85
2021/10/15 02:53:44;;;;;;;11.68;4.32;;;11.90;99.90;;;;;;12444435;28;20049;-86
2021/10/15 02:59:46;;;;;;;9.27;4.40;;;11.90;99.90;;;;;;12449241;28;20057;-85
2021/10/15 03:05:48;;;;;;;8.55;4.18;;;11.90;99.90;;;;;;12461090;28;20067;-87
2021/10/15 03:11:52;;;;;;;9.05;4.47;;;11.90;99.90;;;;;;12446060;28;20049;-85
2021/10/15 03:17:54;;;;;;;12.00;4.57;;;11.90;99.90;;;;;;12450360;28;20144;-85
2021/10/15 03:23:56;;;;;;;12.15;4.43;;;11.80;99.90;;;;;;12460472;28;20358;-86
2021/10/15 03:29:58;;;;;;;10.75;4.70;;;11.90;99.90;;;;;;12443133;28;20052;-86
2021/10/15 03:36:00;;;;;;;9.48;4.78;;;11.90;99.90;;;;;;12444324;28;20049;-84
2021/10/15 03:42:02;;;;;;;9.52;3.55;;;11.80;99.90;;;;;;12442695;28;20488;-86
2021/10/15 03:48:04;;;;;;;9.30;4.43;;;11.80;99.90;;;;;;12435295;28;20110;-84
2021/10/15 03:54:06;;;;;;;8.18;4.32;;;11.80;99.90;;;;;;12462911;28;20502;-85
2021/10/15 04:00:12;;;;;;;13.38;4.10;;;11.80;99.90;;;;;;12442567;28;20053;-83
2021/10/15 04:06:13;;;;;;;;;;;11.80;99.90;;;;;;12447878;28;20049;-87
2021/10/15 04:12:15;;;;;;;7.78;4.25;;;11.80;99.90;;;;;;12442830;28;19925;-86
2021/10/15 04:18:17;;;;;;;8.68;3.88;;;11.70;99.90;;;;;;12458203;28;20059;-84
2021/10/15 04:24:19;;;;;;;7.65;3.63;;;11.70;99.90;;;;;;12445187;28;20669;-85
2021/10/15 04:30:21;;;;;;;10.27;4.00;;;11.70;99.90;;;;;;12450851;28;20057;-86
2021/10/15 04:36:23;;;;;;;6.50;3.55;;;11.60;99.90;;;;;;12472088;28;20095;-86
2021/10/15 04:42:24;;;;;;;8.07;4.00;;;11.60;99.90;;;;;;12439007;28;20061;-85
2021/10/15 04:48:26;;;;;;;9.93;4.25;;;11.60;99.90;;;;;;12441995;28;20110;-85
2021/10/15 04:54:28;;;;;;;11.55;4.25;;;11.60;99.90;;;;;;12438573;28;20057;-85
2021/10/15 05:00:32;;;;;;;8.02;3.90;;;11.50;99.90;;;;;;12439991;28;20462;-84
2021/10/15 05:06:34;;;;;;;9.77;4.22;;;11.50;99.90;;;;;;12440515;28;20056;-86
2021/10/15 05:12:36;;;;;;;9.88;4.78;;;11.40;99.90;;;;;;12438012;28;20136;-84
2021/10/15 05:18:38;;;;;;;8.65;4.40;;;11.40;99.90;;;;;;12440035;28;20172;-85
2021/10/15 05:24:40;;;;;;;8.30;4.60;;;11.40;99.90;;;;;;12459855;28;20463;-84
2021/10/15 05:30:41;;;;;;;9.85;4.45;;;11.30;99.90;;;;;;12437664;28;20160;-84
2021/10/15 05:36:43;;;;;;;11.88;4.90;;;11.30;99.90;;;;;;12459767;28;20057;-86
2021/10/15 05:42:47;;;;;;;9.10;4.72;;;11.30;99.90;;;;;;12458174;28;20049;-84
2021/10/15 05:48:49;;;;;;;11.40;5.57;;;11.30;99.90;;;;;;12437962;28;20103;-86
2021/10/15 05:54:57;;;;;;;9.98;5.10;;;11.30;99.90;;;;;;12438071;28;20049;-85
2021/10/15 06:00:59;;;;;;;7.20;4.60;;;11.30;99.90;;;;;;12438228;28;20041;-84
2021/10/15 06:19:52;;;;;;;10.87;6.00;;;11.30;99.90;;;;;;12461632;28;20052;-85
2021/10/15 06:25:54;;;;;;;10.60;6.03;;;11.30;99.90;;;;;;12461851;28;20075;-85
2021/10/15 06:31:56;;;;;;;10.80;6.05;;;11.30;99.90;;;;;;12458479;28;20045;-87
2021/10/15 06:37:58;;;;;;;11.25;5.88;;;11.30;99.90;;;;;;12491634;28;20437;-84
2021/10/15 06:44:00;;;;;;;10.00;5.85;;;11.30;99.90;;;;;;12454259;28;20061;-84
2021/10/15 06:50:02;;;;;;;17.08;6.38;;;11.30;99.90;;;;;;12464591;28;20053;-85
2021/10/15 06:56:04;;;;;;;16.05;6.93;;;11.40;99.90;;;;;;12448005;28;20415;-84
2021/10/15 07:02:07;;;;;;;11.85;7.05;;;11.40;99.90;;;;;;12463241;28;20113;-84
2021/10/15 07:08:09;;;;;;;12.55;6.63;;;11.40;99.90;;;;;;12466222;28;20049;-84
2021/10/15 07:14:11;;;;;;;13.77;6.68;;;11.50;99.90;;;;;;12464759;28;20454;-86
2021/10/15 07:20:13;;;;;;;12.90;6.82;;;11.50;99.90;;;;;;12446887;28;20157;-85
2021/10/15 07:26:15;;;;;;;11.57;7.20;;;11.70;99.90;;;;;;12447159;28;20081;-84
2021/10/15 07:32:17;;;;;;;14.43;7.75;;;11.70;99.90;;;;;;12467084;28;20147;-83
2021/10/15 07:38:19;;;;;;;13.48;7.65;;;11.80;99.90;;;;;;12467617;28;20085;-85
2021/10/15 07:44:22;;;;;;;13.38;7.18;;;11.80;99.90;;;;;;12465020;28;20065;-85
2021/10/15 07:50:24;;;;;;;12.80;7.60;;;11.80;99.90;;;;;;12465472;28;20045;-84
2021/10/15 07:56:26;;;;;;;11.65;7.28;;;11.70;99.90;;;;;;12464433;28;20046;-84
2021/10/15 08:02:29;;;;;;;16.65;8.82;;;11.80;99.90;;;;;;12445222;28;20052;-84
2021/10/15 08:08:31;;;;;;;12.70;8.38;;;11.80;99.90;;;;;;12450732;28;20612;-85
2021/10/15 08:14:33;;;;;;;15.18;9.73;;;11.70;99.90;;;;;;12464272;28;20049;-84
2021/10/15 08:20:35;;;;;;;20.15;10.98;;;11.70;99.90;;;;;;12463154;28;20045;-83
2021/10/15 08:26:37;;;;;;;18.90;10.88;;;11.60;99.90;;;;;;12441458;28;20450;-84
2021/10/15 08:32:39;;;;;;;15.40;10.95;;;11.60;99.90;;;;;;12463213;28;20052;-86
2021/10/15 08:38:43;;;;;;;20.73;11.00;;;11.60;99.90;;;;;;12450675;28;20049;-87
2021/10/15 08:44:46;;;;;;;20.85;12.90;;;11.50;99.90;;;;;;12438544;28;20061;-86
2021/10/15 08:50:49;;;;;;;19.10;13.52;;;11.30;99.90;;;;;;12442337;28;20095;-85
2021/10/15 08:56:51;;;;;;;17.52;11.30;;;11.20;99.90;;;;;;12441979;28;20075;-84
2021/10/15 09:03:20;;;;;;;21.05;12.68;;;11.20;99.90;;;;;;12441830;28;20094;-85
2021/10/15 09:09:27;;;;;;;7.43;4.80;;;11.20;99.90;;;;;;12454672;28;20159;-85
2021/10/15 09:15:34;;;;;;;2.60;1.42;;;11.00;99.90;;;;;;12439904;28;20132;-84
2021/10/15 09:21:36;;;;;;;4.38;2.58;;;11.00;99.90;;;;;;12455271;28;20136;-84
2021/10/15 09:27:39;;;;;;;3.13;0.70;;;10.90;99.90;;;;;;12441942;28;20049;-85
2021/10/15 09:33:54;;;;;;;1.60;0.57;;;10.90;99.90;;;;;;12460793;28;20096;-85
2021/10/15 09:40:11;;;;;;;0.95;0.50;;;10.90;99.90;;;;;;12451924;28;20045;-85
2021/10/15 09:46:21;;;;;;;1.45;0.65;;;10.80;99.90;;;;;;12443124;28;20045;-85
2021/10/15 09:52:36;;;;;;;2.58;1.15;;;10.90;99.90;;;;;;12441823;28;20037;-84
2021/10/15 09:58:38;;;;;;;1.80;0.52;;;10.80;99.90;;;;;;12469901;28;20544;-85
2021/10/15 10:04:41;;;;;;;1.95;0.60;;;10.80;99.90;;;;;;12456888;28;20085;-86
2021/10/15 10:10:44;;;;;;;1.05;0.45;;;10.70;99.90;;;;;;12465013;28;20049;-85
2021/10/15 10:16:48;;;;;;;1.52;0.73;;;10.70;99.90;;;;;;12451340;28;20136;-86
2021/10/15 10:22:58;;;;;;;2.65;0.52;;;10.80;99.90;;;;;;12451936;28;20045;-85
2021/10/15 10:29:02;;;;;;;1.15;0.57;;;10.90;99.90;;;;;;12450518;28;20183;-85
2021/10/15 10:35:25;;;;;;;2.63;0.57;;;10.90;99.90;;;;;;12446977;28;20037;-87
2021/10/15 10:41:28;;;;;;;1.35;0.60;;;10.80;99.90;;;;;;12442161;28;20045;-85
2021/10/15 10:47:31;;;;;;;2.33;1.00;;;10.70;99.90;;;;;;12468428;28;20405;-85
2021/10/15 10:53:33;;;;;;;2.25;0.90;;;10.80;99.90;;;;;;12445307;28;20897;-85
2021/10/15 10:59:35;;;;;;;2.00;0.93;;;10.60;99.90;;;;;;12448462;28;20106;-85
2021/10/15 11:05:40;;;;;;;6.22;1.05;;;11.10;99.90;;;;;;12445855;28;20045;-85
2021/10/15 11:11:43;;;;;;;3.17;1.10;;;11.50;99.90;;;;;;12444105;28;20709;-85
2021/10/15 11:17:48;;;;;;;4.07;0.70;;;11.90;99.90;;;;;;12447958;28;20422;-86
2021/10/15 11:23:53;;;;;;;3.42;1.00;;;12.10;99.90;;;;;;12447320;28;20106;-86
2021/10/15 11:29:57;;;;;;;;;;;12.10;99.90;;;;;;12434320;28;20456;-85
2021/10/15 11:35:59;;;;;;;7.07;0.98;;;12.30;99.90;;;;;;12461331;28;19971;-86
2021/10/15 11:42:01;;;;;;;8.25;1.38;;;12.60;99.90;;;;;;12447069;28;20057;-84
2021/10/15 11:48:06;;;;;;;6.25;1.20;;;12.70;99.90;;;;;;12439275;28;20052;-85
2021/10/15 11:54:08;;;;;;;6.65;1.55;;;12.80;99.90;;;;;;12452049;28;20038;-84
2021/10/15 12:00:10;;;;;;;6.30;1.40;;;12.60;99.90;;;;;;12443115;28;20136;-85
2021/10/15 12:06:18;;;;;;;8.15;1.30;;;12.30;99.90;;;;;;12445797;28;20077;-85
2021/10/15 12:12:20;;;;;;;10.70;1.40;;;12.20;99.90;;;;;;12464446;28;20080;-85
2021/10/15 12:18:31;;;;;;;7.20;1.23;;;12.70;99.90;;;;;;12443782;28;20057;-87
2021/10/15 12:24:41;;;;;;;10.75;1.77;;;13.60;99.90;;;;;;12461487;28;20049;-86
2021/10/15 12:30:44;;;;;;;8.95;1.38;;;13.90;99.90;;;;;;12442866;28;20057;-84
2021/10/15 12:36:49;;;;;;;9.73;1.50;;;13.60;99.90;;;;;;12446695;28;20091;-86
2021/10/15 12:42:56;;;;;;;8.68;1.27;;;13.30;99.90;;;;;;12437784;28;20556;-85
2021/10/15 12:49:02;;;;;;;9.40;1.70;;;13.00;99.90;;;;;;12431981;28;20056;-86
2021/10/15 12:55:18;;;;;;;7.97;1.50;;;12.60;99.90;;;;;;12444960;28;20080;-85
2021/10/15 13:01:28;;;;;;;14.93;5.28;;;12.10;99.90;;;;;;12441066;28;20059;-87
2021/10/15 13:07:30;;;;;;;7.47;1.17;;;12.10;99.90;;;;;;12454416;28;20057;-86
2021/10/15 13:13:32;;;;;;;8.98;1.83;;;12.30;99.90;;;;;;12435284;28;20042;-86
2021/10/15 13:19:34;;;;;;;7.20;1.75;;;12.50;99.90;;;;;;12444912;28;20049;-86
2021/10/15 13:25:36;;;;;;;9.48;1.50;;;12.60;99.90;;;;;;12441812;28;20049;-85
2021/10/15 13:31:39;;;;;;;10.60;1.80;;;12.70;99.90;;;;;;12451171;28;20057;-85
2021/10/15 13:49:58;;;;;;;;;;;12.50;99.90;;;;;;12478281;28;20045;-86
2021/10/15 13:56:04;;;;;;;15.97;2.07;;;12.60;99.90;;;;;;12470387;28;20440;-86
2021/10/15 14:02:09;;;;;;;9.52;1.40;;;12.60;99.90;;;;;;12456101;28;20061;-85
2021/10/15 14:08:14;;;;;;;12.27;2.05;;;12.70;99.90;;;;;;12451944;28;20053;-86
2021/10/15 14:14:17;;;;;;;10.70;1.80;;;12.50;99.90;;;;;;12459794;28;20049;-87
2021/10/15 14:20:19;;;;;;;12.05;1.73;;;12.50;99.90;;;;;;12475594;28;20161;-86
2021/10/15 14:26:20;;;;;;;13.30;2.50;;;12.50;99.90;;;;;;12458639;28;20065;-85
2021/10/15 14:32:22;;;;;;;13.35;1.90;;;12.60;99.90;;;;;;12449147;28;20442;-86
2021/10/15 14:38:44;;;;;;;9.23;2.08;;;12.70;99.90;;;;;;12463263;28;20057;-86
2021/10/15 14:44:46;;;;;;;11.38;2.28;;;12.70;99.90;;;;;;12448620;28;21476;-86
2021/10/15 14:50:48;;;;;;;10.40;1.95;;;12.70;99.90;;;;;;12466270;28;20045;-85
2021/10/15 14:56:49;;;;;;;13.27;2.08;;;12.80;99.90;;;;;;12448059;28;20102;-86
2021/10/15 15:02:54;;;;;;;11.93;1.85;;;12.80;99.90;;;;;;12449149;28;20046;-87
2021/10/15 15:08:56;;;;;;;15.60;2.22;;;12.80;99.90;;;;;;12469295;28;20064;-86
2021/10/15 15:14:58;;;;;;;13.48;1.90;;;12.60;99.90;;;;;;12446184;28;20048;-86
2021/10/15 15:21:01;;;;;;;14.48;2.15;;;12.40;99.90;;;;;;12469296;28;20045;-86
2021/10/15 15:27:03;;;;;;;11.90;2.03;;;12.30;99.90;;;;;;12447902;28;20084;-85
2021/10/15 15:33:08;;;;;;;13.60;2.58;;;12.30;99.90;;;;;;12449473;28;20114;-87
2021/10/15 15:39:10;;;;;;;;;;;12.30;99.90;;;;;;12465299;28;20064;-87
2021/10/15 15:45:18;;;;;;;7.55;1.63;;;12.10;99.90;;;;;;12455920;28;20337;-85
2021/10/15 15:51:21;;;;;;;14.07;2.47;;;12.10;99.90;;;;;;12442728;28;20057;-85
2021/10/15 15:57:22;;;;;;;15.05;2.50;;;12.10;99.90;;;;;;12439584;28;20538;-85
2021/10/15 16:03:24;;;;;;;11.32;2.58;;;12.00;99.90;;;;;;12448331;28;20056;-87
2021/10/15 16:09:26;;;;;;;13.98;3.08;;;12.00;99.90;;;;;;12445935;28;20054;-87
2021/10/15 16:15:30;;;;;;;10.67;2.20;;;11.80;99.90;;;;;;12448049;28;20049;-86
2021/10/15 16:21:32;;;;;;;13.50;2.67;;;11.70;99.90;;;;;;12468942;28;20073;-85
2021/10/15 16:27:35;;;;;;;18.98;2.30;;;11.60;99.90;;;;;;12449538;28;20041;-85
2021/10/15 16:33:37;;;;;;;11.35;2.33;;;11.40;99.90;;;;;;12462987;28;20501;-84
2021/10/15 16:39:39;;;;;;;11.27;2.38;;;11.40;99.90;;;;;;12444791;28;20045;-85
2021/10/15 16:45:41;;;;;;;16.67;3.10;;;11.20;99.90;;;;;;12445176;28;20140;-86
2021/10/15 16:51:43;;;;;;;12.32;3.67;;;11.30;99.90;;;;;;12461933;28;20049;-85
2021/10/15 16:57:46;;;;;;;13.65;3.03;;;11.30;99.90;;;;;;12461823;28;20109;-85
2021/10/15 17:03:48;;;;;;;15.13;2.80;;;11.20;99.90;;;;;;12460045;28;20077;-86
2021/10/15 17:09:50;;;;;;;20.88;4.13;;;10.90;99.90;;;;;;12461309;28;20146;-86
2021/10/15 17:15:52;;;;;;;26.70;4.32;;;10.90;99.90;;;;;;12444283;28;20409;-86
2021/10/15 17:21:54;;;;;;;18.92;3.88;;;10.60;99.90;;;;;;12442479;28;20041;-86
2021/10/15 17:27:56;;;;;;;18.13;2.92;;;10.50;99.90;;;;;;12440422;28;20828;-86
2021/10/15 17:33:58;;;;;;;11.60;2.78;;;10.60;99.90;;;;;;12442741;28;20041;-85
2021/10/15 17:40:00;;;;;;;13.02;3.28;;;10.50;99.90;;;;;;12468702;28;20049;-85
2021/10/15 17:46:03;;;;;;;11.43;3.40;;;10.40;99.90;;;;;;12438517;28;20065;-87
2021/10/15 17:52:06;;;;;;;16.83;3.10;;;10.40;99.90;;;;;;12446350;28;20484;-85
2021/10/15 17:58:08;;;;;;;13.25;2.92;;;10.40;99.90;;;;;;12440824;28;20080;-86
2021/10/15 18:04:10;;;;;;;16.75;2.85;;;10.40;99.90;;;;;;12465666;28;20076;-87
2021/10/15 18:10:12;;;;;;;9.48;2.50;;;10.40;99.90;;;;;;12440727;28;20102;-87
2021/10/15 18:16:14;;;;;;;14.20;3.03;;;10.20;99.90;;;;;;12442795;28;20037;-85
2021/10/15 18:22:16;;;;;;;14.20;2.85;;;10.30;99.90;;;;;;12452038;28;20132;-87
2021/10/15 18:28:18;;;;;;;13.52;3.03;;;10.20;99.90;;;;;;12457499;28;20088;-85
2021/10/15 18:34:20;;;;;;;12.77;2.83;;;9.90;99.90;;;;;;12455969;28;20277;-85
2021/10/15 18:40:22;;;;;;;14.65;2.47;;;9.80;99.90;;;;;;12440174;28;20140;-86
2021/10/15 18:46:24;;;;;;;12.73;3.92;;;9.80;99.90;;;;;;12466452;28;20126;-85
2021/10/15 18:52:26;;;;;;;20.83;5.10;;;9.90;99.90;;;;;;12463243;28;20050;-87
2021/10/15 18:58:28;;;;;;;17.60;4.03;;;9.70;99.90;;;;;;12440067;28;20066;-86
2021/10/15 19:04:30;;;;;;;16.83;3.88;;;9.60;99.90;;;;;;12443407;28;20144;-86
2021/10/15 19:10:32;;;;;;;19.90;4.07;;;9.50;99.90;;;;;;12448568;28;20545;-86
2021/10/15 19:16:34;;;;;;;10.07;3.58;;;9.40;99.90;;;;;;12446562;28;20128;-85
2021/10/15 19:22:36;;;;;;;12.20;2.63;;;9.40;99.90;;;;;;12448048;28;20698;-86
2021/10/15 19:28:38;;;;;;;15.25;2.92;;;9.30;99.90;;;;;;12446897;28;20081;-85
2021/10/15 19:34:40;;;;;;;14.05;2.92;;;9.40;99.90;;;;;;12447273;28;20168;-86
2021/10/15 19:40:42;;;;;;;13.00;2.95;;;9.20;99.90;;;;;;12464170;28;20132;-85
2021/10/15 19:46:44;;;;;;;12.55;2.20;;;9.20;99.90;;;;;;12447912;28;20073;-86
2021/10/15 19:52:46;;;;;;;10.45;2.65;;;9.10;99.90;;;;;;12462735;28;20045;-86
2021/10/15 19:58:47;;;;;;;13.90;2.80;;;9.20;99.90;;;;;;12448122;28;20485;-85
2021/10/15 20:04:49;;;;;;;13.48;2.30;;;9.20;99.90;;;;;;12448136;28;20052;-86
2021/10/15 20:10:51;;;;;;;17.02;2.45;;;9.20;99.90;;;;;;12446533;28;20148;-84
2021/10/15 20:16:53;;;;;;;11.98;2.22;;;9.10;99.90;;;;;;12448438;28;21169;-86
2021/10/15 20:22:55;;;;;;;12.55;2.03;;;9.10;99.90;;;;;;12453061;28;20563;-85
2021/10/15 20:28:58;;;;;;;9.27;1.75;;;9.10;99.90;;;;;;12445936;28;20144;-85
2021/10/15 20:35:00;;;;;;;13.07;2.40;;;9.00;99.90;;;;;;12463365;28;20041;-86
2021/10/15 20:41:02;;;;;;;11.48;2.00;;;8.90;99.90;;;;;;12441431;28;20046;-86
2021/10/15 20:47:04;;;;;;;12.75;2.25;;;8.90;99.90;;;;;;12443597;28;20498;-86
2021/10/15 20:53:06;;;;;;;10.85;2.50;;;8.90;99.90;;;;;;12437842;28;20067;-86
2021/10/15 20:59:08;;;;;;;15.65;2.40;;;8.90;99.90;;;;;;12443472;28;20379;-86
2021/10/15 21:05:10;;;;;;;8.90;2.33;;;8.80;99.90;;;;;;12454226;28;20065;-86
2021/10/15 21:11:12;;;;;;;15.68;2.25;;;8.90;99.90;;;;;;12443689;28;20536;-85
2021/10/15 21:17:13;;;;;;;10.65;2.13;;;8.80;99.90;;;;;;12442691;28;20053;-85
2021/10/15 21:23:15;;;;;;;14.82;2.53;;;8.70;99.90;;;;;;12443618;28;20041;-85
2021/10/15 21:29:18;;;;;;;15.75;2.22;;;8.70;99.90;;;;;;12442076;28;20540;-86
2021/10/15 21:35:20;;;;;;;12.25;2.60;;;8.70;99.90;;;;;;12437895;28;20056;-85
2021/10/15 21:41:21;;;;;;;15.52;2.85;;;8.70;99.90;;;;;;12460589;28;20138;-85
2021/10/15 21:47:23;;;;;;;12.07;2.95;;;8.60;99.90;;;;;;12460193;28;20600;-85
2021/10/15 21:53:25;;;;;;;13.90;2.65;;;8.60;99.90;;;;;;12448334;28;20053;-85
2021/10/15 21:59:30;;;;;;;12.38;2.67;;;8.60;99.90;;;;;;12463336;28;20045;-85
2021/10/15 22:05:32;;;;;;;18.27;2.80;;;8.60;99.90;;;;;;12468179;28;20174;-85
2021/10/15 22:11:34;;;;;;;12.18;3.38;;;8.50;99.90;;;;;;12449922;28;20049;-86
2021/10/15 22:17:36;;;;;;;17.80;2.72;;;8.50;99.90;;;;;;12450309;28;20057;-85
2021/10/15 22:23:38;;;;;;;14.25;2.85;;;8.40;99.90;;;;;;12465703;28;20177;-85
2021/10/15 22:29:40;;;;;;;14.48;2.75;;;8.30;99.90;;;;;;12455944;28;20092;-85
2021/10/15 22:35:42;;;;;;;11.27;2.25;;;8.40;99.90;;;;;;12469326;28;20065;-85
2021/10/15 22:41:44;;;;;;;12.57;2.50;;;8.50;99.90;;;;;;12449740;28;20049;-85
2021/10/15 22:47:46;;;;;;;15.63;3.38;;;8.30;99.90;;;;;;12449967;28;20398;-84
2021/10/15 22:53:48;;;;;;;15.00;3.03;;;8.30;99.90;;;;;;12451506;28;20041;-85
2021/10/15 22:59:50;;;;;;;10.60;2.17;;;8.30;99.90;;;;;;12457946;28;20046;-85
2021/10/15 23:05:52;;;;;;;12.20;2.80;;;8.30;99.90;;;;;;12448432;28;20539;-85
2021/10/15 23:11:54;;;;;;;16.23;2.85;;;8.20;99.90;;;;;;12446429;28;20052;-85
2021/10/15 23:17:56;;;;;;;11.35;2.97;;;8.30;99.90;;;;;;12468669;28;20069;-85
2021/10/15 23:23:58;;;;;;;13.50;3.15;;;8.30;99.90;;;;;;12436943;28;20050;-86
2021/10/15 23:30:00;;;;;;;12.93;2.47;;;8.30;99.90;;;;;;12448571;28;20310;-85
2021/10/15 23:36:02;;;;;;;20.42;2.70;;;8.30;99.90;;;;;;12449414;28;20088;-85
2021/10/15 23:42:05;;;;;;;10.82;2.65;;;8.40;99.90;;;;;;12445995;28;20045;-85
2021/10/15 23:48:07;;;;;;;9.63;2.47;;;8.40;99.90;;;;;;12445085;28;20053;-85
2021/10/15 23:54:08;;;;;;;12.82;2.80;;;8.20;99.90;;;;;;12444737;28;20048;-86
